createdAt,value
2019-03-31T00:02:00.441Z,9.78
2019-03-31T00:04:26.308Z,9.70
2019-03-31T00:06:52.194Z,9.79
2019-03-31T00:09:18.262Z,9.85
2019-03-31T00:11:44.283Z,9.90
2019-03-31T00:14:10.247Z,9.83
2019-03-31T00:16:36.163Z,9.86
2019-03-31T00:19:02.109Z,9.85
2019-03-31T00:21:28.100Z,9.76
2019-03-31T00:23:53.912Z,9.81
2019-03-31T00:26:19.854Z,9.77
2019-03-31T00:28:45.697Z,9.72
2019-03-31T00:31:21.906Z,9.72
2019-03-31T00:33:40.112Z,9.69
2019-03-31T00:36:05.923Z,9.70
2019-03-31T00:38:31.869Z,9.64
2019-03-31T00:40:57.759Z,9.52
2019-03-31T00:43:23.589Z,9.47
2019-03-31T00:45:49.421Z,9.42
2019-03-31T00:48:15.450Z,9.35
2019-03-31T00:50:41.372Z,9.36
2019-03-31T00:53:07.309Z,9.24
2019-03-31T00:55:33.377Z,9.26
2019-03-31T00:57:59.188Z,9.17
2019-03-31T01:00:45.572Z,9.15
2019-03-31T01:03:11.501Z,9.18
2019-03-31T01:05:40.642Z,9.23
2019-03-31T01:08:06.739Z,9.26
2019-03-31T01:10:32.867Z,9.24
2019-03-31T01:12:59.110Z,9.24
2019-03-31T01:15:26.735Z,9.26
2019-03-31T01:17:53.279Z,9.23
2019-03-31T01:20:19.205Z,9.23
2019-03-31T01:22:45.191Z,9.19
2019-03-31T01:25:12.912Z,9.14
2019-03-31T01:27:39.041Z,9.10
2019-03-31T01:30:05.804Z,9.14
2019-03-31T01:32:31.854Z,9.12
2019-03-31T01:35:01.180Z,9.19
2019-03-31T01:37:27.354Z,9.25
2019-03-31T01:39:54.002Z,9.22
2019-03-31T01:42:20.219Z,9.34
2019-03-31T01:44:46.163Z,9.29
2019-03-31T01:47:13.187Z,9.20
2019-03-31T01:49:39.171Z,9.18
2019-03-31T01:52:05.114Z,9.12
2019-03-31T01:54:30.937Z,9.05
2019-03-31T01:56:56.934Z,9.00
2019-03-31T01:59:22.770Z,8.95
2019-03-31T02:01:48.679Z,8.86
2019-03-31T02:04:14.647Z,8.85
2019-03-31T02:06:40.679Z,8.85
2019-03-31T02:09:06.960Z,8.84
2019-03-31T02:11:33.030Z,8.81
2019-03-31T02:13:58.997Z,8.82
2019-03-31T02:16:25.183Z,8.83
2019-03-31T02:18:51.037Z,8.82
2019-03-31T02:21:16.872Z,8.78
2019-03-31T02:23:42.843Z,8.81
2019-03-31T02:26:08.873Z,8.81
2019-03-31T02:28:34.841Z,8.84
2019-03-31T02:31:00.932Z,8.85
2019-03-31T02:33:26.755Z,8.82
2019-03-31T02:35:52.817Z,8.78
2019-03-31T02:38:18.921Z,8.76
2019-03-31T02:40:44.777Z,8.74
2019-03-31T02:43:10.586Z,8.77
2019-03-31T02:45:36.489Z,8.77
2019-03-31T02:48:02.504Z,8.92
2019-03-31T02:50:38.545Z,8.83
2019-03-31T02:53:04.483Z,8.81
2019-03-31T02:55:30.921Z,8.75
2019-03-31T02:57:56.989Z,8.71
2019-03-31T03:00:23.063Z,8.72
2019-03-31T03:02:49.202Z,8.64
2019-03-31T03:05:20.021Z,8.64
2019-03-31T03:07:46.737Z,8.71
2019-03-31T03:10:12.747Z,8.70
2019-03-31T03:12:40.506Z,8.68
2019-03-31T03:15:06.551Z,8.61
2019-03-31T03:17:32.530Z,8.60
2019-03-31T03:19:58.364Z,8.53
2019-03-31T03:22:24.254Z,8.52
2019-03-31T03:24:50.080Z,8.52
2019-03-31T03:27:15.890Z,8.35
2019-03-31T03:29:41.890Z,8.33
2019-03-31T03:32:07.949Z,8.34
2019-03-31T03:34:34.116Z,8.33
2019-03-31T03:37:00.086Z,8.28
2019-03-31T03:39:25.928Z,8.26
2019-03-31T03:41:51.759Z,8.33
2019-03-31T03:44:17.614Z,8.48
2019-03-31T03:46:43.465Z,8.46
2019-03-31T03:49:09.529Z,8.38
2019-03-31T03:51:35.815Z,8.42
2019-03-31T03:54:01.663Z,8.45
2019-03-31T03:56:29.264Z,8.41
2019-03-31T03:58:55.372Z,8.39
2019-03-31T04:01:22.277Z,8.38
2019-03-31T04:03:48.068Z,8.31
2019-03-31T04:06:14.124Z,8.25
2019-03-31T04:08:40.093Z,8.24
2019-03-31T04:11:12.151Z,8.16
2019-03-31T04:13:37.990Z,8.08
2019-03-31T04:16:03.935Z,7.99
2019-03-31T04:18:29.784Z,8.03
2019-03-31T04:20:55.655Z,8.07
2019-03-31T04:23:21.490Z,8.08
2019-03-31T04:25:47.323Z,8.13
2019-03-31T04:28:13.310Z,8.03
2019-03-31T04:30:39.145Z,8.01
2019-03-31T04:33:05.134Z,8.06
2019-03-31T04:35:30.970Z,8.12
2019-03-31T04:37:56.893Z,8.13
2019-03-31T04:40:22.807Z,8.10
2019-03-31T04:42:48.634Z,8.15
2019-03-31T04:45:14.579Z,8.09
2019-03-31T04:47:40.534Z,8.12
2019-03-31T04:50:06.972Z,8.07
2019-03-31T04:52:32.893Z,8.06
2019-03-31T04:54:58.817Z,8.04
2019-03-31T04:57:24.657Z,7.95
2019-03-31T04:59:50.547Z,7.98
2019-03-31T05:02:16.390Z,7.90
2019-03-31T05:04:42.298Z,7.89
2019-03-31T05:07:08.191Z,7.90
2019-03-31T05:09:34.031Z,7.89
2019-03-31T05:12:00.013Z,7.97
2019-03-31T05:14:25.888Z,7.92
2019-03-31T05:16:51.733Z,7.96
2019-03-31T05:19:17.686Z,8.07
2019-03-31T05:21:43.656Z,8.11
2019-03-31T05:24:09.487Z,8.05
2019-03-31T05:26:35.342Z,8.08
2019-03-31T05:29:01.208Z,8.25
2019-03-31T05:31:27.148Z,8.11
2019-03-31T05:33:53.002Z,8.14
2019-03-31T05:36:18.863Z,8.09
2019-03-31T05:38:44.680Z,8.04
2019-03-31T05:41:10.674Z,8.07
2019-03-31T05:43:36.599Z,8.07
2019-03-31T05:46:02.651Z,8.00
2019-03-31T05:48:28.515Z,8.01
2019-03-31T05:50:54.349Z,8.03
2019-03-31T05:53:20.187Z,8.20
2019-03-31T05:55:46.190Z,8.26
2019-03-31T05:58:12.009Z,8.29
2019-03-31T06:00:39.915Z,8.37
2019-03-31T06:03:05.890Z,8.31
2019-03-31T06:05:31.827Z,8.36
2019-03-31T06:07:57.713Z,8.49
2019-03-31T06:10:23.654Z,8.62
2019-03-31T06:12:49.724Z,8.64
2019-03-31T06:15:15.660Z,8.51
2019-03-31T06:17:41.497Z,8.77
2019-03-31T06:20:07.436Z,9.02
2019-03-31T06:22:33.305Z,8.90
2019-03-31T06:24:59.157Z,8.93
2019-03-31T06:27:24.992Z,8.99
2019-03-31T06:29:51.046Z,8.99
2019-03-31T06:32:17.023Z,9.02
2019-03-31T06:34:47.645Z,9.13
2019-03-31T06:37:10.631Z,9.23
2019-03-31T06:39:36.476Z,9.29
2019-03-31T06:42:02.588Z,9.39
2019-03-31T06:44:28.438Z,9.49
2019-03-31T06:46:54.277Z,9.57
2019-03-31T06:49:20.249Z,9.62
2019-03-31T06:51:46.103Z,9.72
2019-03-31T06:54:12.119Z,9.89
2019-03-31T06:56:38.033Z,9.96
2019-03-31T06:59:03.873Z,10.07
2019-03-31T07:01:29.701Z,10.25
2019-03-31T07:03:55.579Z,10.37
2019-03-31T07:06:21.511Z,10.50
2019-03-31T07:08:47.481Z,10.62
2019-03-31T07:11:13.430Z,10.70
2019-03-31T07:13:39.313Z,10.90
2019-03-31T07:16:05.220Z,11.00
2019-03-31T07:18:31.174Z,11.08
2019-03-31T07:20:57.008Z,11.15
2019-03-31T07:23:22.855Z,11.05
2019-03-31T07:25:48.704Z,11.25
2019-03-31T07:28:14.649Z,11.44
2019-03-31T07:30:40.411Z,11.61
2019-03-31T07:33:06.310Z,11.67
2019-03-31T07:35:32.221Z,11.71
2019-03-31T07:37:58.049Z,11.86
2019-03-31T07:40:24.306Z,11.98
2019-03-31T07:42:51.324Z,12.19
2019-03-31T07:45:17.675Z,12.36
2019-03-31T07:47:43.961Z,12.55
2019-03-31T07:50:12.463Z,12.70
2019-03-31T07:52:38.481Z,12.82
2019-03-31T07:55:05.193Z,13.00
2019-03-31T07:57:31.231Z,13.19
2019-03-31T07:59:57.112Z,13.38
2019-03-31T08:02:22.961Z,13.52
2019-03-31T08:04:48.796Z,13.61
2019-03-31T08:07:14.725Z,13.81
2019-03-31T08:09:40.606Z,13.83
2019-03-31T08:12:06.661Z,13.98
2019-03-31T08:14:32.493Z,14.05
2019-03-31T08:16:58.481Z,14.25
2019-03-31T08:19:24.298Z,14.41
2019-03-31T08:21:50.136Z,14.45
2019-03-31T08:24:16.200Z,14.56
2019-03-31T08:26:42.045Z,14.55
2019-03-31T08:29:07.897Z,14.63
2019-03-31T08:31:33.729Z,14.88
2019-03-31T08:33:59.584Z,14.96
2019-03-31T08:36:25.438Z,15.05
2019-03-31T08:38:51.278Z,15.18
2019-03-31T08:41:17.148Z,15.12
2019-03-31T08:43:42.957Z,15.17
2019-03-31T08:46:08.785Z,15.28
2019-03-31T08:48:34.666Z,15.33
2019-03-31T08:51:00.510Z,15.38
2019-03-31T08:53:30.587Z,15.66
2019-03-31T08:55:56.468Z,15.82
2019-03-31T08:58:22.399Z,15.98
2019-03-31T09:00:50.266Z,15.97
2019-03-31T09:03:16.186Z,15.86
2019-03-31T09:05:42.168Z,15.86
2019-03-31T09:08:07.987Z,15.72
2019-03-31T09:10:33.843Z,15.92
2019-03-31T09:12:59.731Z,15.88
2019-03-31T09:15:25.582Z,15.98
2019-03-31T09:17:54.032Z,16.19
2019-03-31T09:20:19.347Z,16.10
2019-03-31T09:22:45.171Z,16.01
2019-03-31T09:25:11.396Z,16.23
2019-03-31T09:27:37.406Z,16.29
2019-03-31T09:30:06.847Z,16.38
2019-03-31T09:32:32.773Z,16.67
2019-03-31T09:34:58.766Z,16.53
2019-03-31T09:37:24.592Z,16.59
2019-03-31T09:39:50.413Z,16.64
2019-03-31T09:42:16.307Z,16.90
2019-03-31T09:44:42.341Z,16.77
2019-03-31T09:47:08.270Z,16.91
2019-03-31T09:49:34.156Z,17.02
2019-03-31T09:52:00.088Z,17.07
2019-03-31T09:54:29.396Z,17.10
2019-03-31T09:56:55.216Z,17.29
2019-03-31T09:59:21.259Z,17.28
2019-03-31T10:01:47.252Z,17.58
2019-03-31T10:04:13.172Z,17.38
2019-03-31T10:06:39.101Z,16.96
2019-03-31T10:09:05.296Z,17.25
2019-03-31T10:11:31.239Z,16.98
2019-03-31T10:13:57.068Z,17.23
2019-03-31T10:16:23.165Z,17.58
2019-03-31T10:18:48.992Z,17.25
2019-03-31T10:21:14.865Z,17.42
2019-03-31T10:23:40.701Z,17.58
2019-03-31T10:26:06.635Z,17.23
2019-03-31T10:28:32.619Z,17.55
2019-03-31T10:30:58.484Z,17.85
2019-03-31T10:33:24.289Z,17.83
2019-03-31T10:35:50.183Z,17.99
2019-03-31T10:38:16.102Z,17.77
2019-03-31T10:40:42.062Z,17.84
2019-03-31T10:43:08.117Z,18.31
2019-03-31T10:45:34.161Z,18.31
2019-03-31T10:47:59.983Z,18.08
2019-03-31T10:50:26.029Z,17.97
2019-03-31T10:52:51.875Z,18.21
2019-03-31T10:55:17.867Z,18.19
2019-03-31T10:57:43.810Z,18.55
2019-03-31T11:00:10.338Z,18.86
2019-03-31T11:02:36.343Z,18.43
2019-03-31T11:05:04.553Z,18.70
2019-03-31T11:07:30.491Z,18.46
2019-03-31T11:09:56.402Z,18.57
2019-03-31T11:12:22.223Z,18.50
2019-03-31T11:14:48.253Z,18.65
2019-03-31T11:17:14.228Z,18.85
2019-03-31T11:19:40.169Z,18.37
2019-03-31T11:22:20.191Z,18.89
2019-03-31T11:24:46.266Z,19.32
2019-03-31T11:27:12.115Z,18.95
2019-03-31T11:29:38.062Z,18.73
2019-03-31T11:32:03.914Z,18.76
2019-03-31T11:34:29.902Z,18.84
2019-03-31T11:36:55.826Z,18.78
2019-03-31T11:39:21.968Z,18.65
2019-03-31T11:41:47.796Z,18.97
2019-03-31T11:44:13.773Z,19.20
2019-03-31T11:46:39.699Z,19.26
2019-03-31T11:49:05.739Z,19.19
2019-03-31T11:51:31.607Z,19.30
2019-03-31T11:53:57.461Z,19.19
2019-03-31T11:56:23.332Z,19.34
2019-03-31T11:58:49.219Z,19.42
2019-03-31T12:01:15.359Z,19.61
2019-03-31T12:03:41.412Z,19.48
2019-03-31T12:06:11.050Z,19.78
2019-03-31T12:08:35.456Z,19.83
2019-03-31T12:11:01.312Z,19.88
2019-03-31T12:13:27.202Z,20.09
2019-03-31T12:15:53.028Z,19.43
2019-03-31T12:18:18.900Z,20.35
2019-03-31T12:20:44.826Z,20.04
2019-03-31T12:23:10.658Z,20.30
2019-03-31T12:25:36.604Z,20.12
2019-03-31T12:28:02.665Z,19.89
2019-03-31T12:30:28.846Z,20.45
2019-03-31T12:32:56.296Z,20.66
2019-03-31T12:35:22.245Z,21.21
2019-03-31T12:37:48.301Z,21.15
2019-03-31T12:40:17.933Z,20.65
2019-03-31T12:42:43.899Z,21.49
2019-03-31T12:45:10.055Z,22.78
2019-03-31T12:47:35.864Z,21.93
2019-03-31T12:50:03.352Z,21.84
2019-03-31T12:52:29.358Z,21.46
2019-03-31T12:54:55.183Z,21.66
2019-03-31T12:57:21.078Z,22.06
2019-03-31T12:59:46.893Z,22.43
2019-03-31T13:02:12.728Z,22.82
2019-03-31T13:04:38.713Z,22.46
2019-03-31T13:07:04.651Z,23.04
2019-03-31T13:09:30.576Z,25.84
2019-03-31T13:11:56.551Z,28.23
2019-03-31T13:14:22.501Z,26.25
2019-03-31T13:16:48.339Z,27.84
2019-03-31T13:19:14.306Z,25.85
2019-03-31T13:21:40.124Z,27.45
2019-03-31T13:24:06.177Z,30.38
2019-03-31T13:26:32.227Z,27.70
2019-03-31T13:28:58.059Z,26.75
2019-03-31T13:31:23.888Z,29.24
2019-03-31T13:33:49.771Z,28.24
2019-03-31T13:36:15.796Z,28.86
2019-03-31T13:38:41.612Z,28.15
2019-03-31T13:41:07.721Z,28.84
2019-03-31T13:43:33.596Z,27.59
2019-03-31T13:46:00.314Z,28.99
2019-03-31T13:48:26.335Z,30.14
2019-03-31T13:50:52.152Z,29.93
2019-03-31T13:53:18.007Z,28.78
2019-03-31T13:55:43.868Z,28.21
2019-03-31T13:58:10.839Z,31.80
2019-03-31T14:00:40.674Z,31.21
2019-03-31T14:03:07.163Z,29.24
2019-03-31T14:05:33.195Z,29.29
2019-03-31T14:07:59.126Z,30.66
2019-03-31T14:10:24.950Z,31.95
2019-03-31T14:12:50.796Z,31.97
2019-03-31T14:15:19.383Z,27.99
2019-03-31T14:17:44.460Z,26.14
2019-03-31T14:20:10.496Z,28.99
2019-03-31T14:22:36.372Z,31.59
2019-03-31T14:25:04.002Z,32.12
2019-03-31T14:27:29.828Z,28.33
2019-03-31T14:29:55.725Z,31.37
2019-03-31T14:32:21.586Z,31.58
2019-03-31T14:34:47.481Z,32.33
2019-03-31T14:37:13.466Z,31.79
2019-03-31T14:39:39.297Z,31.35
2019-03-31T14:42:05.327Z,29.27
2019-03-31T14:44:31.329Z,31.80
2019-03-31T14:46:57.269Z,32.91
2019-03-31T14:49:25.702Z,31.55
2019-03-31T14:51:50.914Z,28.55
2019-03-31T14:54:16.835Z,29.02
2019-03-31T14:56:42.766Z,29.21
2019-03-31T14:59:08.884Z,31.47
2019-03-31T15:01:34.705Z,34.14
2019-03-31T15:04:00.514Z,32.00
2019-03-31T15:06:26.527Z,30.15
2019-03-31T15:08:54.486Z,30.01
2019-03-31T15:11:21.997Z,30.03
2019-03-31T15:13:48.321Z,28.85
2019-03-31T15:16:14.174Z,32.69
2019-03-31T15:18:40.006Z,31.18
2019-03-31T15:21:05.907Z,31.48
2019-03-31T15:23:31.757Z,31.86
2019-03-31T15:25:57.598Z,32.66
2019-03-31T15:28:23.443Z,31.12
2019-03-31T15:30:49.283Z,33.83
2019-03-31T15:33:15.552Z,30.00
2019-03-31T15:35:41.402Z,30.01
2019-03-31T15:38:07.234Z,29.43
2019-03-31T15:40:33.181Z,27.77
2019-03-31T15:42:59.115Z,33.72
2019-03-31T15:45:25.004Z,31.07
2019-03-31T15:47:50.886Z,29.55
2019-03-31T15:50:17.139Z,30.31
2019-03-31T15:52:43.123Z,29.42
2019-03-31T15:55:09.660Z,32.88
2019-03-31T15:57:35.499Z,30.56
2019-03-31T16:00:01.738Z,29.98
2019-03-31T16:02:29.539Z,29.00
2019-03-31T16:04:55.388Z,27.96
2019-03-31T16:07:21.337Z,27.79
2019-03-31T16:09:47.367Z,26.86
2019-03-31T16:12:13.243Z,26.76
2019-03-31T16:14:39.071Z,26.55
2019-03-31T16:17:05.025Z,25.47
2019-03-31T16:19:30.982Z,26.31
2019-03-31T16:21:56.850Z,25.64
2019-03-31T16:24:24.602Z,24.74
2019-03-31T16:26:52.970Z,25.91
2019-03-31T16:29:18.248Z,26.75
2019-03-31T16:31:44.125Z,28.49
2019-03-31T16:34:10.006Z,26.09
2019-03-31T16:36:35.873Z,29.80
2019-03-31T16:39:01.694Z,27.98
2019-03-31T16:41:27.563Z,27.52
2019-03-31T16:43:53.496Z,26.06
2019-03-31T16:46:19.391Z,24.43
2019-03-31T16:48:45.260Z,26.03
2019-03-31T16:51:11.087Z,24.75
2019-03-31T16:53:36.998Z,25.27
2019-03-31T16:56:03.094Z,25.71
2019-03-31T16:58:28.937Z,25.20
2019-03-31T17:00:54.895Z,25.14
2019-03-31T17:03:20.767Z,25.84
2019-03-31T17:05:46.634Z,23.96
2019-03-31T17:08:12.530Z,22.47
2019-03-31T17:10:38.570Z,22.06
2019-03-31T17:13:04.560Z,22.39
2019-03-31T17:15:30.407Z,22.19
2019-03-31T17:17:56.245Z,22.16
2019-03-31T17:20:22.203Z,22.04
2019-03-31T17:22:48.083Z,21.08
2019-03-31T17:25:13.986Z,20.58
2019-03-31T17:27:39.837Z,20.52
2019-03-31T17:30:07.191Z,20.36
2019-03-31T17:32:33.102Z,19.97
2019-03-31T17:34:59.051Z,19.88
2019-03-31T17:37:24.859Z,19.79
2019-03-31T17:40:05.143Z,19.65
2019-03-31T17:42:18.885Z,19.49
2019-03-31T17:44:44.847Z,19.40
2019-03-31T17:47:10.740Z,19.35
2019-03-31T17:49:36.617Z,19.26
2019-03-31T17:52:02.602Z,19.11
2019-03-31T17:54:28.522Z,18.99
2019-03-31T17:56:54.350Z,18.93
2019-03-31T17:59:20.222Z,18.78
2019-03-31T18:01:46.289Z,18.67
2019-03-31T18:04:12.210Z,18.50
2019-03-31T18:06:38.038Z,18.41
2019-03-31T18:09:06.908Z,18.59
2019-03-31T18:11:32.756Z,18.33
2019-03-31T18:13:58.651Z,18.01
2019-03-31T18:16:24.647Z,17.80
2019-03-31T18:18:50.801Z,17.79
2019-03-31T18:21:16.783Z,17.61
2019-03-31T18:23:42.663Z,17.25
2019-03-31T18:26:08.687Z,17.01
2019-03-31T18:28:34.534Z,16.89
2019-03-31T18:31:00.505Z,16.65
2019-03-31T18:33:26.433Z,16.65
2019-03-31T18:35:52.577Z,16.66
2019-03-31T18:38:18.930Z,16.65
2019-03-31T18:40:48.128Z,16.48
2019-03-31T18:43:13.952Z,16.33
2019-03-31T18:45:39.843Z,16.26
2019-03-31T18:48:05.912Z,16.14
2019-03-31T18:50:31.973Z,16.17
2019-03-31T18:53:01.958Z,16.16
2019-03-31T18:55:41.592Z,16.06
2019-03-31T18:58:27.743Z,15.91
2019-03-31T19:00:58.413Z,15.66
2019-03-31T19:03:34.937Z,15.51
2019-03-31T19:06:05.724Z,15.57
2019-03-31T19:08:51.748Z,15.52
2019-03-31T19:11:25.383Z,15.52
2019-03-31T19:14:09.748Z,15.47
2019-03-31T19:16:55.681Z,15.32
2019-03-31T19:19:29.255Z,15.28
2019-03-31T19:22:12.116Z,15.25
2019-03-31T19:24:46.286Z,15.21
2019-03-31T19:27:22.890Z,15.34
2019-03-31T19:29:53.497Z,15.31
2019-03-31T19:32:27.042Z,15.35
2019-03-31T19:34:54.925Z,15.30
2019-03-31T19:37:34.673Z,15.24
2019-03-31T19:40:19.306Z,15.21
2019-03-31T19:42:47.145Z,15.04
2019-03-31T19:45:23.956Z,15.01
2019-03-31T19:47:51.924Z,14.86
2019-03-31T19:50:31.836Z,14.90
2019-03-31T19:53:16.315Z,14.81
2019-03-31T19:55:49.961Z,14.77
2019-03-31T19:58:17.702Z,14.71
2019-03-31T20:00:45.728Z,14.75
2019-03-31T20:03:22.812Z,14.63
2019-03-31T20:05:59.922Z,14.59
2019-03-31T20:08:44.504Z,14.47
2019-03-31T20:11:18.051Z,14.45
2019-03-31T20:14:11.090Z,14.30
2019-03-31T20:16:45.211Z,14.22
2019-03-31T20:19:15.771Z,14.18
2019-03-31T20:21:52.549Z,14.20
2019-03-31T20:24:29.302Z,14.14
2019-03-31T20:26:57.308Z,14.03
2019-03-31T20:29:35.802Z,14.07
2019-03-31T20:32:19.230Z,13.96
2019-03-31T20:34:53.187Z,13.92
2019-03-31T20:37:26.093Z,13.85
2019-03-31T20:39:56.915Z,13.86
2019-03-31T20:42:39.131Z,13.78
2019-03-31T20:45:06.339Z,13.68
2019-03-31T20:47:34.307Z,13.74
2019-03-31T20:50:00.440Z,13.67
2019-03-31T20:52:26.659Z,13.65
2019-03-31T20:54:52.844Z,13.63
2019-03-31T20:57:18.940Z,13.67
2019-03-31T20:59:45.220Z,13.70
2019-03-31T21:02:13.137Z,13.66
2019-03-31T21:04:39.350Z,13.58
2019-03-31T21:07:05.296Z,13.54
2019-03-31T21:09:44.204Z,13.50
2019-03-31T21:11:59.188Z,13.33
2019-03-31T21:14:25.020Z,13.22
2019-03-31T21:16:50.970Z,13.20
2019-03-31T21:19:19.134Z,12.98
2019-03-31T21:21:44.758Z,12.91
2019-03-31T21:24:10.683Z,12.83
2019-03-31T21:26:36.527Z,12.82
2019-03-31T21:29:02.339Z,12.71
2019-03-31T21:31:28.431Z,12.89
2019-03-31T21:33:54.513Z,12.89
2019-03-31T21:36:20.355Z,12.93
2019-03-31T21:38:46.504Z,12.98
2019-03-31T21:41:14.126Z,12.86
2019-03-31T21:43:40.315Z,12.92
2019-03-31T21:46:06.335Z,12.86
2019-03-31T21:48:34.069Z,12.89
2019-03-31T21:50:59.929Z,12.84
2019-03-31T21:53:28.859Z,12.84
2019-03-31T21:55:54.723Z,12.74
2019-03-31T21:58:20.591Z,12.71
2019-03-31T22:00:51.300Z,12.67
2019-03-31T22:03:19.611Z,12.71
2019-03-31T22:05:45.718Z,12.75
2019-03-31T22:08:11.539Z,12.64
2019-03-31T22:10:37.376Z,12.52
2019-03-31T22:13:03.249Z,12.40
2019-03-31T22:15:29.073Z,12.30
2019-03-31T22:17:55.036Z,12.32
2019-03-31T22:20:21.616Z,12.30
2019-03-31T22:22:47.452Z,12.45
2019-03-31T22:25:13.459Z,12.37
2019-03-31T22:27:39.446Z,12.37
2019-03-31T22:30:05.730Z,12.45
2019-03-31T22:32:31.640Z,12.40
2019-03-31T22:34:57.818Z,12.36
2019-03-31T22:37:29.818Z,12.30
2019-03-31T22:39:59.104Z,12.17
2019-03-31T22:42:25.028Z,12.17
2019-03-31T22:44:50.859Z,12.10
2019-03-31T22:47:20.020Z,12.04
2019-03-31T22:49:48.869Z,12.06
2019-03-31T22:52:14.751Z,11.87
2019-03-31T22:54:43.486Z,11.92
2019-03-31T22:57:09.303Z,11.89
2019-03-31T22:59:35.279Z,11.84
2019-03-31T23:02:01.519Z,11.85
2019-03-31T23:04:27.352Z,11.87
2019-03-31T23:06:54.455Z,11.84
2019-03-31T23:09:20.305Z,11.87
2019-03-31T23:11:46.246Z,11.77
2019-03-31T23:14:12.193Z,11.78
2019-03-31T23:16:38.335Z,11.75
2019-03-31T23:19:04.341Z,11.66
2019-03-31T23:21:30.165Z,11.61
2019-03-31T23:23:56.005Z,11.49
2019-03-31T23:26:21.961Z,11.47
2019-03-31T23:28:47.786Z,11.43
2019-03-31T23:31:15.197Z,11.37
2019-03-31T23:33:41.186Z,11.36
2019-03-31T23:36:07.122Z,11.42
2019-03-31T23:38:32.965Z,11.39
2019-03-31T23:40:58.945Z,11.39
2019-03-31T23:43:24.849Z,11.37
2019-03-31T23:45:50.791Z,11.35
2019-03-31T23:48:16.636Z,11.32
2019-03-31T23:50:42.558Z,11.29
2019-03-31T23:53:08.380Z,11.27
2019-03-31T23:55:34.214Z,11.25
2019-03-31T23:58:00.272Z,11.27
